createdAt,value
2022-08-24T00:01:23.909Z,99.90
2022-08-24T00:03:55.171Z,99.90
2022-08-24T00:06:23.759Z,99.90
2022-08-24T00:08:53.158Z,99.90
2022-08-24T00:11:20.664Z,99.90
2022-08-24T00:13:48.012Z,99.90
2022-08-24T00:16:16.695Z,99.90
2022-08-24T00:18:45.191Z,99.90
2022-08-24T00:21:12.945Z,99.90
2022-08-24T00:23:40.430Z,99.90
2022-08-24T00:26:08.240Z,99.90
2022-08-24T00:28:36.073Z,99.90
2022-08-24T00:31:04.035Z,99.90
2022-08-24T00:33:35.124Z,99.90
2022-08-24T00:36:03.488Z,99.90
2022-08-24T00:38:32.854Z,99.90
2022-08-24T00:40:59.965Z,99.90
2022-08-24T00:43:27.235Z,99.90
2022-08-24T00:45:59.996Z,99.90
2022-08-24T00:48:31.231Z,99.90
2022-08-24T00:51:11.248Z,99.90
2022-08-24T00:53:44.987Z,99.90
2022-08-24T00:56:17.756Z,99.90
2022-08-24T00:58:52.757Z,99.90
2022-08-24T01:01:25.986Z,99.90
2022-08-24T01:03:56.754Z,99.90
2022-08-24T01:06:24.398Z,99.90
2022-08-24T01:08:56.701Z,99.90
2022-08-24T01:11:27.638Z,99.90
2022-08-24T01:14:02.815Z,99.90
2022-08-24T01:16:48.880Z,99.90
2022-08-24T01:19:38.561Z,99.90
2022-08-24T01:22:20.239Z,99.90
2022-08-24T01:24:48.021Z,99.90
2022-08-24T01:27:16.160Z,99.90
2022-08-24T01:29:46.062Z,99.90
2022-08-24T01:32:14.230Z,99.90
2022-08-24T01:34:41.194Z,99.90
2022-08-24T01:37:10.986Z,99.90
2022-08-24T01:39:41.504Z,99.90
2022-08-24T01:42:09.270Z,99.90
2022-08-24T01:44:38.931Z,99.90
2022-08-24T01:47:07.726Z,99.90
2022-08-24T01:49:38.561Z,99.90
2022-08-24T01:52:07.196Z,99.90
2022-08-24T01:54:35.063Z,99.90
2022-08-24T01:57:02.350Z,99.90
2022-08-24T01:59:29.824Z,99.90
2022-08-24T02:02:02.983Z,99.90
2022-08-24T02:04:30.379Z,99.90
2022-08-24T02:06:57.510Z,99.90
2022-08-24T02:09:24.771Z,99.90
2022-08-24T02:11:57.764Z,99.90
2022-08-24T02:14:24.762Z,99.90
2022-08-24T02:16:57.464Z,99.90
2022-08-24T02:19:27.349Z,99.90
2022-08-24T02:21:54.391Z,99.90
2022-08-24T02:24:21.606Z,99.90
2022-08-24T02:26:49.366Z,99.90
2022-08-24T02:29:17.785Z,99.90
2022-08-24T02:31:45.058Z,99.90
2022-08-24T02:34:12.700Z,99.90
2022-08-24T02:36:40.559Z,99.90
2022-08-24T02:39:08.866Z,99.90
2022-08-24T02:41:37.820Z,99.90
2022-08-24T02:44:06.136Z,99.90
2022-08-24T02:46:33.565Z,99.90
2022-08-24T02:49:11.419Z,99.90
2022-08-24T02:51:44.041Z,99.90
2022-08-24T02:54:12.282Z,99.90
2022-08-24T02:56:39.820Z,99.90
2022-08-24T02:59:07.176Z,99.90
2022-08-24T03:01:34.399Z,99.90
2022-08-24T03:04:01.455Z,99.90
2022-08-24T03:06:28.552Z,99.90
2022-08-24T03:08:56.971Z,99.90
2022-08-24T03:11:28.085Z,99.90
2022-08-24T03:13:59.355Z,99.90
2022-08-24T03:16:31.726Z,99.90
2022-08-24T03:18:59.208Z,99.90
2022-08-24T03:21:26.853Z,99.90
2022-08-24T03:23:54.271Z,99.90
2022-08-24T03:26:23.115Z,99.90
2022-08-24T03:28:50.940Z,99.90
2022-08-24T03:31:19.092Z,99.90
2022-08-24T03:33:46.704Z,99.90
2022-08-24T03:36:14.621Z,99.90
2022-08-24T03:38:42.092Z,99.90
2022-08-24T03:41:09.478Z,99.90
2022-08-24T03:43:47.450Z,99.90
2022-08-24T03:46:21.640Z,99.90
2022-08-24T03:48:49.648Z,99.90
2022-08-24T03:51:19.502Z,99.90
2022-08-24T03:53:46.962Z,99.90
2022-08-24T03:56:14.102Z,99.90
2022-08-24T03:58:41.927Z,99.90
2022-08-24T04:01:09.938Z,99.90
2022-08-24T04:03:44.883Z,99.90
2022-08-24T04:06:14.875Z,99.90
2022-08-24T04:08:44.086Z,99.90
2022-08-24T04:11:13.376Z,99.90
2022-08-24T04:13:40.815Z,99.90
2022-08-24T04:16:11.604Z,99.90
2022-08-24T04:18:39.310Z,99.90
2022-08-24T04:21:06.637Z,99.90
2022-08-24T04:23:47.509Z,99.90
2022-08-24T04:26:16.849Z,99.90
2022-08-24T04:29:07.971Z,99.90
2022-08-24T04:31:37.037Z,99.90
2022-08-24T04:34:04.419Z,99.90
2022-08-24T04:36:32.645Z,99.90
2022-08-24T04:39:01.080Z,99.90
2022-08-24T04:41:31.427Z,99.90
2022-08-24T04:44:00.841Z,99.90
2022-08-24T04:46:29.200Z,99.90
2022-08-24T04:48:56.309Z,99.90
2022-08-24T04:51:23.474Z,99.90
2022-08-24T04:53:50.919Z,99.90
2022-08-24T04:56:24.199Z,99.90
2022-08-24T04:58:53.359Z,99.90
2022-08-24T05:01:24.041Z,99.90
2022-08-24T05:03:54.241Z,99.90
2022-08-24T05:06:24.336Z,99.90
2022-08-24T05:08:51.706Z,99.90
2022-08-24T05:11:20.519Z,99.90
2022-08-24T05:13:48.223Z,99.90
2022-08-24T05:16:18.019Z,99.90
2022-08-24T05:18:46.410Z,99.90
2022-08-24T05:21:16.122Z,99.90
2022-08-24T05:23:43.935Z,99.90
2022-08-24T05:26:20.474Z,99.90
2022-08-24T05:28:48.005Z,99.90
2022-08-24T05:31:23.810Z,99.90
2022-08-24T05:33:50.876Z,99.90
2022-08-24T05:36:26.435Z,99.90
2022-08-24T05:38:55.367Z,99.90
2022-08-24T05:41:23.036Z,99.90
2022-08-24T05:43:50.523Z,99.90
2022-08-24T05:46:18.050Z,99.90
2022-08-24T05:48:50.541Z,99.90
2022-08-24T05:51:20.389Z,99.90
2022-08-24T05:53:47.702Z,94.90
2022-08-24T05:56:17.384Z,87.60
2022-08-24T05:58:45.264Z,79.20
2022-08-24T06:01:23.891Z,73.20
2022-08-24T06:03:52.400Z,68.10
2022-08-24T06:06:21.480Z,65.00
2022-08-24T06:08:51.796Z,62.00
2022-08-24T06:11:30.348Z,60.10
2022-08-24T06:14:07.300Z,58.10
2022-08-24T06:16:36.455Z,56.50
2022-08-24T06:19:04.970Z,55.10
2022-08-24T06:21:32.948Z,55.10
2022-08-24T06:24:00.630Z,54.60
2022-08-24T06:26:50.362Z,54.30
2022-08-24T06:29:19.090Z,53.40
2022-08-24T06:31:54.121Z,52.90
2022-08-24T06:34:22.191Z,52.50
2022-08-24T06:36:49.248Z,52.60
2022-08-24T06:43:03.617Z,51.60
2022-08-24T06:45:31.220Z,52.50
2022-08-24T06:48:03.653Z,52.90
2022-08-24T06:50:30.606Z,53.40
2022-08-24T06:52:57.878Z,54.50
2022-08-24T06:55:25.021Z,54.30
2022-08-24T06:57:52.743Z,54.40
2022-08-24T07:00:20.399Z,53.50
2022-08-24T07:02:47.835Z,53.30
2022-08-24T07:05:15.025Z,53.10
2022-08-24T07:07:42.236Z,52.70
2022-08-24T07:10:09.825Z,53.00
2022-08-24T07:12:37.618Z,53.60
2022-08-24T07:15:05.170Z,53.60
2022-08-24T07:17:39.637Z,53.80
2022-08-24T07:20:07.120Z,54.20
2022-08-24T07:22:34.105Z,54.10
2022-08-24T07:25:01.134Z,54.00
2022-08-24T07:27:28.239Z,53.60
2022-08-24T07:30:10.216Z,54.30
2022-08-24T07:32:42.255Z,54.00
2022-08-24T07:35:09.557Z,53.80
2022-08-24T07:37:41.469Z,53.80
2022-08-24T07:40:09.599Z,54.90
2022-08-24T07:42:36.969Z,55.90
2022-08-24T07:45:04.321Z,56.20
2022-08-24T07:47:43.071Z,57.50
2022-08-24T07:50:14.477Z,58.80
2022-08-24T07:52:41.841Z,59.50
2022-08-24T07:55:09.381Z,59.30
2022-08-24T07:57:38.624Z,61.90
2022-08-24T08:00:11.702Z,64.20
2022-08-24T08:02:40.145Z,65.20
2022-08-24T08:05:07.831Z,67.50
2022-08-24T08:07:34.882Z,69.10
2022-08-24T08:10:02.563Z,68.10
2022-08-24T08:12:29.590Z,67.30
2022-08-24T08:14:57.839Z,69.50
2022-08-24T08:17:24.845Z,70.50
2022-08-24T08:19:51.860Z,72.00
2022-08-24T08:22:38.054Z,72.10
2022-08-24T08:25:07.624Z,72.50
2022-08-24T08:27:35.989Z,73.50
2022-08-24T08:30:05.843Z,73.10
2022-08-24T08:32:33.217Z,73.70
2022-08-24T08:35:02.274Z,71.50
2022-08-24T08:37:29.814Z,72.40
2022-08-24T08:39:57.023Z,74.10
2022-08-24T08:42:29.446Z,75.20
2022-08-24T08:45:11.684Z,75.50
2022-08-24T08:47:50.692Z,72.10
2022-08-24T08:50:56.929Z,69.70
2022-08-24T08:53:56.225Z,71.90
2022-08-24T08:56:42.030Z,72.00
2022-08-24T08:59:18.073Z,72.20
2022-08-24T09:01:54.090Z,72.10
2022-08-24T09:04:25.320Z,71.40
2022-08-24T09:06:55.294Z,71.90
2022-08-24T09:09:34.891Z,69.40
2022-08-24T09:12:17.629Z,71.30
2022-08-24T09:15:05.754Z,70.50
2022-08-24T09:17:51.298Z,70.50
2022-08-24T09:20:47.541Z,71.40
2022-08-24T09:23:23.172Z,72.10
2022-08-24T09:26:03.605Z,71.00
2022-08-24T09:28:36.588Z,71.50
2022-08-24T09:31:08.364Z,70.50
2022-08-24T09:33:46.007Z,70.90
2022-08-24T09:36:27.856Z,70.80
2022-08-24T09:39:00.388Z,68.20
2022-08-24T09:41:40.399Z,68.00
2022-08-24T09:44:40.305Z,69.10
2022-08-24T09:47:47.669Z,69.20
2022-08-24T09:50:14.609Z,68.40
2022-08-24T09:53:09.958Z,69.80
2022-08-24T09:55:52.262Z,68.60
2022-08-24T09:58:33.377Z,66.90
2022-08-24T10:01:24.916Z,67.00
2022-08-24T10:04:24.813Z,67.10
2022-08-24T10:06:55.603Z,68.80
2022-08-24T10:09:46.728Z,68.60
2022-08-24T10:12:35.109Z,69.30
2022-08-24T10:15:09.877Z,68.10
2022-08-24T10:17:55.061Z,67.50
2022-08-24T10:20:35.681Z,67.70
2022-08-24T10:23:14.853Z,66.80
2022-08-24T10:26:23.371Z,65.40
2022-08-24T10:29:22.665Z,66.20
2022-08-24T10:32:26.716Z,66.60
2022-08-24T10:35:02.634Z,67.50
2022-08-24T10:38:24.203Z,67.70
2022-08-24T10:41:09.745Z,65.80
2022-08-24T10:43:52.177Z,66.00
2022-08-24T10:46:46.575Z,67.70
2022-08-24T10:49:16.583Z,68.80
2022-08-24T10:52:21.063Z,71.10
2022-08-24T10:54:48.430Z,67.70
2022-08-24T10:57:44.216Z,66.80
2022-08-24T11:00:22.694Z,66.50
2022-08-24T11:03:08.316Z,67.50
2022-08-24T11:05:45.219Z,66.20
2022-08-24T11:08:29.444Z,66.50
2022-08-24T11:14:48.699Z,66.20
2022-08-24T11:17:42.787Z,65.00
2022-08-24T11:20:44.226Z,63.60
2022-08-24T11:23:31.024Z,64.10
2022-08-24T11:26:10.555Z,63.90
2022-08-24T11:28:41.551Z,63.50
2022-08-24T11:31:48.259Z,63.60
2022-08-24T11:34:18.692Z,64.40
2022-08-24T11:36:45.859Z,65.30
2022-08-24T11:39:34.815Z,65.50
2022-08-24T11:42:35.564Z,64.90
2022-08-24T11:45:34.504Z,64.20
2022-08-24T11:48:20.288Z,62.20
2022-08-24T11:54:22.185Z,59.60
2022-08-24T11:57:30.285Z,61.20
2022-08-24T12:00:12.326Z,59.70
2022-08-24T12:03:08.268Z,59.50
2022-08-24T12:06:20.015Z,60.00
2022-08-24T12:09:09.762Z,60.40
2022-08-24T12:12:06.066Z,59.90
2022-08-24T12:15:14.510Z,61.30
2022-08-24T12:17:49.713Z,62.30
2022-08-24T12:20:33.286Z,61.50
2022-08-24T12:23:09.124Z,60.60
2022-08-24T12:25:55.379Z,58.70
2022-08-24T12:28:30.520Z,60.00
2022-08-24T12:31:02.517Z,60.30
2022-08-24T12:34:09.811Z,63.50
2022-08-24T12:40:29.429Z,61.20
2022-08-24T12:43:46.929Z,59.40
2022-08-24T12:46:17.453Z,63.80
2022-08-24T12:49:02.730Z,62.30
2022-08-24T12:51:53.270Z,63.20
2022-08-24T13:02:35.575Z,62.80
2022-08-24T13:05:20.935Z,65.10
2022-08-24T13:07:53.019Z,66.80
2022-08-24T13:10:23.840Z,66.70
2022-08-24T13:13:02.609Z,68.50
2022-08-24T13:15:32.681Z,67.00
2022-08-24T13:18:21.513Z,68.20
2022-08-24T13:20:49.502Z,70.00
2022-08-24T13:23:23.309Z,68.70
2022-08-24T13:26:00.318Z,66.80
2022-08-24T13:28:35.834Z,64.60
2022-08-24T13:31:03.118Z,65.40
2022-08-24T13:33:41.405Z,63.40
2022-08-24T13:36:30.063Z,61.90
2022-08-24T13:39:15.351Z,61.10
2022-08-24T13:41:55.689Z,61.40
2022-08-24T13:44:52.017Z,63.00
2022-08-24T13:48:05.497Z,62.90
2022-08-24T13:50:54.608Z,61.00
2022-08-24T13:53:42.026Z,63.20
2022-08-24T13:56:35.142Z,62.70
2022-08-24T13:59:05.403Z,63.70
2022-08-24T14:01:34.143Z,62.30
2022-08-24T14:04:04.048Z,61.40
2022-08-24T14:06:55.767Z,63.00
2022-08-24T14:09:37.572Z,62.40
2022-08-24T14:12:12.504Z,63.20
2022-08-24T14:14:42.243Z,64.40
2022-08-24T14:17:55.081Z,66.60
2022-08-24T14:21:00.587Z,68.10
2022-08-24T14:23:37.242Z,69.60
2022-08-24T14:27:08.072Z,68.80
2022-08-24T14:29:45.604Z,68.50
2022-08-24T14:32:39.125Z,66.90
2022-08-24T14:35:22.280Z,66.70
2022-08-24T14:38:20.445Z,66.00
2022-08-24T14:41:14.413Z,65.00
2022-08-24T14:43:47.308Z,63.50
2022-08-24T14:46:39.277Z,65.60
2022-08-24T14:49:46.088Z,64.40
2022-08-24T14:52:52.000Z,66.50
2022-08-24T14:55:40.907Z,65.50
2022-08-24T14:58:19.071Z,66.80
2022-08-24T15:01:17.378Z,67.00
2022-08-24T15:04:37.809Z,66.30
2022-08-24T15:07:24.093Z,65.90
2022-08-24T15:09:51.654Z,64.30
2022-08-24T15:12:42.378Z,63.10
2022-08-24T15:15:34.114Z,63.00
2022-08-24T15:18:17.024Z,63.10
2022-08-24T15:21:12.168Z,63.80
2022-08-24T15:24:10.424Z,64.90
2022-08-24T15:27:03.310Z,67.10
2022-08-24T15:29:33.692Z,68.80
2022-08-24T15:32:08.635Z,69.60
2022-08-24T15:34:58.406Z,69.90
2022-08-24T15:37:30.881Z,70.90
2022-08-24T15:39:58.983Z,70.50
2022-08-24T15:42:29.891Z,70.20
2022-08-24T15:45:01.234Z,71.40
2022-08-24T15:47:38.207Z,71.00
2022-08-24T15:50:22.524Z,70.80
2022-08-24T15:53:02.810Z,71.50
2022-08-24T15:55:35.373Z,70.40
2022-08-24T15:58:35.430Z,70.50
2022-08-24T16:01:46.599Z,70.50
2022-08-24T16:04:35.492Z,70.30
2022-08-24T16:07:03.380Z,70.50
2022-08-24T16:09:30.428Z,67.60
2022-08-24T16:12:10.121Z,67.80
2022-08-24T16:14:47.357Z,69.50
2022-08-24T16:17:22.720Z,69.30
2022-08-24T16:19:53.593Z,68.80
2022-08-24T16:22:57.098Z,70.00
2022-08-24T16:25:34.822Z,70.80
2022-08-24T16:28:05.495Z,72.00
2022-08-24T16:30:51.881Z,72.00
2022-08-24T16:33:43.098Z,72.40
2022-08-24T16:36:17.788Z,72.10
2022-08-24T16:38:50.616Z,72.50
2022-08-24T16:41:22.620Z,72.50
2022-08-24T16:43:50.070Z,72.00
2022-08-24T16:46:22.448Z,72.50
2022-08-24T16:48:50.060Z,71.90
2022-08-24T16:51:17.246Z,72.20
2022-08-24T16:53:44.246Z,72.30
2022-08-24T16:56:16.364Z,72.00
2022-08-24T16:58:45.310Z,73.40
2022-08-24T17:01:13.912Z,73.50
2022-08-24T17:03:42.608Z,73.30
2022-08-24T17:06:14.866Z,73.00
2022-08-24T17:08:42.640Z,73.30
2022-08-24T17:11:09.839Z,72.60
2022-08-24T17:13:52.614Z,72.00
2022-08-24T17:16:22.130Z,73.20
2022-08-24T17:18:49.783Z,72.70
2022-08-24T17:21:17.484Z,73.20
2022-08-24T17:23:44.846Z,72.30
2022-08-24T17:26:20.171Z,73.20
2022-08-24T17:28:52.869Z,74.70
2022-08-24T17:31:20.158Z,74.00
2022-08-24T17:33:47.554Z,74.70
2022-08-24T17:36:16.122Z,75.70
2022-08-24T17:38:48.424Z,76.50
2022-08-24T17:41:18.500Z,77.50
2022-08-24T17:43:48.614Z,77.50
2022-08-24T17:46:17.589Z,78.40
2022-08-24T17:48:46.183Z,79.20
2022-08-24T17:51:13.852Z,79.00
2022-08-24T17:53:41.449Z,79.80
2022-08-24T17:56:10.692Z,80.30
2022-08-24T17:58:58.036Z,81.00
2022-08-24T18:01:26.217Z,81.40
2022-08-24T18:03:53.547Z,81.70
2022-08-24T18:06:23.847Z,82.40
2022-08-24T18:08:51.994Z,82.60
2022-08-24T18:11:22.765Z,83.30
2022-08-24T18:13:53.689Z,83.30
2022-08-24T18:16:25.216Z,83.60
2022-08-24T18:18:53.983Z,84.30
2022-08-24T18:21:22.581Z,84.70
2022-08-24T18:23:50.517Z,85.30
2022-08-24T18:26:27.693Z,85.70
2022-08-24T18:28:57.645Z,87.00
2022-08-24T18:31:27.849Z,87.60
2022-08-24T18:33:55.185Z,88.10
2022-08-24T18:36:22.584Z,88.40
2022-08-24T18:38:50.107Z,89.20
2022-08-24T18:41:17.736Z,89.60
2022-08-24T18:43:45.212Z,90.00
2022-08-24T18:46:14.558Z,90.00
2022-08-24T18:48:41.861Z,90.20
2022-08-24T18:51:16.310Z,90.50
2022-08-24T18:53:43.769Z,90.60
2022-08-24T18:56:12.733Z,90.80
2022-08-24T18:58:40.230Z,90.60
2022-08-24T19:01:11.738Z,91.30
2022-08-24T19:03:38.883Z,91.50
2022-08-24T19:06:07.368Z,91.70
2022-08-24T19:08:34.356Z,92.00
2022-08-24T19:11:01.448Z,92.30
2022-08-24T19:13:28.466Z,92.80
2022-08-24T19:15:55.685Z,93.00
2022-08-24T19:18:24.901Z,92.90
2022-08-24T19:20:54.882Z,93.10
2022-08-24T19:23:31.241Z,93.40
2022-08-24T19:25:58.725Z,94.00
2022-08-24T19:28:26.565Z,94.20
2022-08-24T19:30:56.099Z,94.60
2022-08-24T19:33:31.980Z,94.90
2022-08-24T19:35:59.839Z,95.20
2022-08-24T19:38:26.964Z,95.50
2022-08-24T19:40:58.167Z,95.70
2022-08-24T19:43:28.651Z,96.10
2022-08-24T19:46:05.369Z,96.50
2022-08-24T19:48:34.320Z,97.00
2022-08-24T19:51:14.060Z,97.60
2022-08-24T19:53:43.097Z,98.10
2022-08-24T19:56:11.151Z,98.40
2022-08-24T19:59:05.925Z,99.00
2022-08-24T20:01:36.741Z,99.60
2022-08-24T20:04:07.551Z,99.90
2022-08-24T20:06:37.036Z,99.90
2022-08-24T20:09:04.922Z,99.90
2022-08-24T20:11:32.222Z,99.90
2022-08-24T20:13:59.298Z,99.90
2022-08-24T20:16:30.637Z,99.90
2022-08-24T20:19:00.195Z,99.90
2022-08-24T20:21:30.065Z,99.90
2022-08-24T20:23:59.065Z,99.90
2022-08-24T20:26:26.248Z,99.90
2022-08-24T20:28:59.285Z,99.90
2022-08-24T20:31:28.633Z,99.90
2022-08-24T20:33:57.664Z,99.90
2022-08-24T20:36:32.575Z,99.90
2022-08-24T20:39:01.272Z,99.90
2022-08-24T20:41:28.911Z,99.90
2022-08-24T20:43:56.874Z,99.90
2022-08-24T20:46:26.934Z,99.90
2022-08-24T20:48:56.475Z,99.90
2022-08-24T20:51:24.687Z,99.90
2022-08-24T20:53:51.759Z,99.90
2022-08-24T20:56:28.719Z,99.90
2022-08-24T20:59:02.771Z,99.90
2022-08-24T21:01:43.033Z,99.90
2022-08-24T21:04:10.890Z,99.90
2022-08-24T21:06:40.945Z,99.90
2022-08-24T21:09:10.421Z,99.90
2022-08-24T21:11:42.271Z,99.90
2022-08-24T21:14:10.330Z,99.90
2022-08-24T21:16:40.196Z,99.90
2022-08-24T21:19:09.084Z,99.90
2022-08-24T21:21:42.236Z,99.90
2022-08-24T21:24:09.785Z,99.90
2022-08-24T21:26:37.118Z,99.90
2022-08-24T21:29:09.693Z,99.90
2022-08-24T21:31:37.138Z,99.90
2022-08-24T21:34:23.566Z,99.90
2022-08-24T21:36:52.683Z,99.90
2022-08-24T21:39:21.573Z,99.90
2022-08-24T21:41:48.629Z,99.90
2022-08-24T21:44:16.994Z,99.90
2022-08-24T21:46:44.147Z,99.90
2022-08-24T21:49:11.969Z,99.90
2022-08-24T21:51:40.136Z,99.90
2022-08-24T21:54:07.173Z,99.90
2022-08-24T21:56:35.319Z,99.90
2022-08-24T21:59:03.202Z,99.90
2022-08-24T22:01:30.272Z,99.90
2022-08-24T22:03:58.932Z,99.90
2022-08-24T22:06:30.662Z,99.90
2022-08-24T22:08:58.812Z,99.90
2022-08-24T22:11:26.477Z,99.90
2022-08-24T22:13:54.655Z,99.90
2022-08-24T22:16:22.062Z,99.90
2022-08-24T22:18:57.269Z,99.90
2022-08-24T22:21:26.384Z,99.90
2022-08-24T22:23:53.400Z,99.90
2022-08-24T22:27:02.835Z,99.90
2022-08-24T22:29:29.828Z,99.90
2022-08-24T22:31:56.891Z,99.90
2022-08-24T22:34:36.548Z,99.90
2022-08-24T22:37:04.893Z,99.90
2022-08-24T22:39:32.272Z,99.90
2022-08-24T22:42:07.895Z,99.90
2022-08-24T22:44:46.283Z,99.90
2022-08-24T22:47:15.227Z,99.90
2022-08-24T22:49:45.513Z,99.90
2022-08-24T22:56:01.426Z,99.90
2022-08-24T22:58:30.496Z,99.90
2022-08-24T23:00:57.483Z,99.90
2022-08-24T23:03:49.835Z,99.90
2022-08-24T23:06:17.784Z,99.90
2022-08-24T23:08:45.243Z,99.90
2022-08-24T23:15:00.420Z,99.90
2022-08-24T23:17:27.387Z,99.90
2022-08-24T23:20:00.817Z,99.90
2022-08-24T23:22:31.785Z,99.90
2022-08-24T23:25:00.082Z,99.90
2022-08-24T23:27:55.990Z,99.90
2022-08-24T23:30:22.981Z,99.90
2022-08-24T23:32:49.960Z,99.90
2022-08-24T23:35:33.137Z,99.90
2022-08-24T23:38:00.644Z,99.90
2022-08-24T23:40:27.695Z,99.90
2022-08-24T23:43:10.396Z,99.90
2022-08-24T23:45:38.803Z,99.90
2022-08-24T23:48:06.518Z,99.90
2022-08-24T23:50:46.641Z,99.90
2022-08-24T23:53:15.517Z,99.90
2022-08-24T23:55:49.890Z,99.90
2022-08-24T23:58:16.964Z,99.90
